Weather History for Beach, ND

Change the Weather History Date:

Thursday, June 27, 2013

  Actual Average (KGDV) Record (KGDV)
Temperature  
Mean Temperature 65 °F -  
Max Temperature 77 °F 77 °F 100 °F (2002)
Min Temperature 53 °F 51 °F 39 °F (2000)
Growing Degree Days 15 (Base 50)    
Moisture  
Dew Point 52 °F    
Average Humidity 63    
Maximum Humidity 100    
Minimum Humidity 34    
Precipitation  
Precipitation 0.00 in - - ()
Sea Level Pressure  
Sea Level Pressure 30.10 in    
Wind  
Wind Speed 9 mph (WNW)    
Max Wind Speed 23 mph    
Max Gust Speed 31 mph    
Visibility 10 miles    
Events      
Averages and records for this station are not official NWS values.
T = Trace of Precipitation, MM = Missing Value Source: NWS Daily Summary

Daily Weather History Graph

Daily Weather History Graph

Search for Another Location

Airport:

Trip Planner

Search our weather history database for the weather conditions in past years. The results will help you decide how hot, cold, wet, or windy it might be!

Date:

Astronomy

Jun. 27, 2013 Rise Set
Actual Time 5:03 AM MDT 8:54 PM MDT
Civil Twilight 4:23 AM MDT 9:34 PM MDT
Nautical Twilight 3:29 AM MDT 10:28 PM MDT
Astronomical Twilight 2:09 AM MDT 11:48 PM MDT
Moon 11:30 PM MDT (6/27) 10:27 AM MDT (6/27)
Length of Visible Light 17h 10m
Length of Day
15h 51m
Waning Gibbous, 76% of the Moon is Illuminated
Jun 27
Waning Gibbous
Jun 29
Last Quarter
Jul 8
New
Jul 15
First Quarter
Jul 22
Full

Hourly Weather History & Observations

Time (MDT) Temp. Dew Point Humidity Pressure Visibility Wind Dir Wind Speed Gust Speed Precip Events Conditions
12:15 AM 57.2 °F 55.4 °F 94% 30.03 in 10.0 mi Calm Calm - N/A   Clear
12:35 AM 57.2 °F 55.4 °F 94% 30.03 in 10.0 mi Calm Calm - N/A   Clear
12:55 AM 57.2 °F 55.4 °F 94% 30.03 in 10.0 mi Calm Calm - N/A   Clear
1:15 AM 55.4 °F 55.4 °F 100% 30.03 in 10.0 mi Calm Calm - N/A   Clear
1:35 AM 55.4 °F 53.6 °F 94% 30.04 in 10.0 mi Calm Calm - N/A   Clear
1:55 AM 57.2 °F 53.6 °F 88% 30.05 in 10.0 mi Calm Calm - N/A   Clear
2:15 AM 57.2 °F 53.6 °F 88% 30.04 in 10.0 mi SW 3.5 mph - N/A   Clear
2:35 AM 55.4 °F 53.6 °F 94% 30.04 in 10.0 mi WSW 6.9 mph - N/A   Clear
2:55 AM 55.4 °F 53.6 °F 94% 30.05 in 10.0 mi WSW 8.1 mph - N/A   Clear
3:15 AM 55.4 °F 53.6 °F 94% 30.04 in 10.0 mi WSW 4.6 mph - N/A   Clear
3:35 AM 55.4 °F 53.6 °F 94% 30.05 in 10.0 mi WSW 8.1 mph - N/A   Clear
3:55 AM 55.4 °F 53.6 °F 94% 30.05 in 10.0 mi WSW 8.1 mph - N/A   Clear
4:15 AM 53.6 °F 53.6 °F 100% 30.05 in 10.0 mi WSW 9.2 mph - N/A   Clear
4:35 AM 55.4 °F 53.6 °F 94% 30.05 in 10.0 mi WSW 8.1 mph - N/A   Clear
4:55 AM 55.4 °F 53.6 °F 94% 30.05 in 10.0 mi WSW 10.4 mph - N/A   Clear
5:15 AM 55.4 °F 53.6 °F 94% 30.05 in 10.0 mi WSW 8.1 mph - N/A   Clear
5:35 AM 55.4 °F 53.6 °F 94% 30.05 in 10.0 mi WSW 8.1 mph - N/A   Clear
5:55 AM 57.2 °F 55.4 °F 94% 30.05 in 10.0 mi WSW 10.4 mph - N/A   Clear
6:15 AM 57.2 °F 55.4 °F 94% 30.05 in 10.0 mi WSW 8.1 mph - N/A   Clear
6:35 AM 60.8 °F 55.4 °F 82% 30.06 in 10.0 mi WSW 9.2 mph - N/A   Clear
6:55 AM 62.6 °F 55.4 °F 77% 30.06 in 10.0 mi WSW 9.2 mph - N/A   Clear
7:15 AM 64.4 °F 55.4 °F 73% 30.07 in 10.0 mi West 10.4 mph - N/A   Clear
7:35 AM 64.4 °F 55.4 °F 73% 30.07 in 10.0 mi West 12.7 mph 16.1 mph N/A   Clear
7:55 AM 66.2 °F 57.2 °F 73% 30.07 in 10.0 mi West 11.5 mph - N/A   Clear
8:15 AM 68.0 °F 57.2 °F 68% 30.08 in 10.0 mi West 11.5 mph - N/A   Clear
8:35 AM 68.0 °F 57.2 °F 68% 30.08 in 10.0 mi West 11.5 mph - N/A   Clear
8:55 AM 69.8 °F 55.4 °F 60% 30.09 in 10.0 mi West 10.4 mph - N/A   Clear
9:15 AM 71.6 °F 55.4 °F 57% 30.08 in 10.0 mi WNW 11.5 mph - N/A   Clear
9:35 AM 71.6 °F 55.4 °F 57% 30.09 in 10.0 mi WNW 12.7 mph 18.4 mph N/A   Clear
9:55 AM 73.4 °F 55.4 °F 53% 30.09 in 10.0 mi WNW 12.7 mph 18.4 mph N/A   Clear
10:15 AM 73.4 °F 51.8 °F 47% 30.09 in 10.0 mi NW 13.8 mph 19.6 mph N/A   Clear
10:35 AM 73.4 °F 53.6 °F 50% 30.09 in 10.0 mi WNW 12.7 mph 18.4 mph N/A   Clear
10:55 AM 75.2 °F 50.0 °F 41% 30.10 in 10.0 mi NW 13.8 mph 24.2 mph N/A   Clear
11:15 AM 75.2 °F 50.0 °F 41% 30.10 in 10.0 mi WNW 16.1 mph 20.7 mph N/A   Clear
11:35 AM 75.2 °F 50.0 °F 41% 30.11 in 10.0 mi WNW 16.1 mph 25.3 mph N/A   Clear
11:55 AM 75.2 °F 48.2 °F 38% 30.11 in 10.0 mi NW 17.3 mph 25.3 mph N/A   Clear
12:15 PM 75.2 °F 50.0 °F 41% 30.11 in 10.0 mi WNW 16.1 mph 25.3 mph N/A   Clear
12:35 PM 75.2 °F 50.0 °F 41% 30.12 in 10.0 mi WNW 19.6 mph 26.5 mph N/A   Clear
12:55 PM 75.2 °F 50.0 °F 41% 30.12 in 10.0 mi NW 18.4 mph 26.5 mph N/A   Clear
1:15 PM 75.2 °F 48.2 °F 38% 30.12 in 10.0 mi WNW 20.7 mph 26.5 mph N/A   Clear
1:35 PM 75.2 °F 48.2 °F 38% 30.12 in 10.0 mi WNW 20.7 mph 25.3 mph N/A   Clear
1:55 PM 75.2 °F 48.2 °F 38% 30.12 in 10.0 mi WNW 16.1 mph 25.3 mph N/A   Clear
2:15 PM 77.0 °F 48.2 °F 36% 30.12 in 10.0 mi NW 17.3 mph 26.5 mph N/A   Clear
2:35 PM 77.0 °F 48.2 °F 36% 30.12 in 10.0 mi WNW 20.7 mph 26.5 mph N/A   Clear
2:55 PM 77.0 °F 48.2 °F 36% 30.12 in 10.0 mi WNW 20.7 mph 27.6 mph N/A   Clear
3:15 PM 77.0 °F 48.2 °F 36% 30.12 in 10.0 mi NW 21.9 mph 26.5 mph N/A   Clear
3:35 PM 77.0 °F 48.2 °F 36% 30.13 in 10.0 mi NW 21.9 mph 31.1 mph N/A   Clear
3:55 PM 77.0 °F 48.2 °F 36% 30.13 in 10.0 mi NW 21.9 mph 28.8 mph N/A   Clear
4:15 PM 77.0 °F 50.0 °F 39% 30.13 in 10.0 mi NW 21.9 mph 26.5 mph N/A   Clear
4:35 PM 77.0 °F 48.2 °F 36% 30.13 in 10.0 mi NW 21.9 mph 28.8 mph N/A   Partly Cloudy
4:55 PM 77.0 °F 46.4 °F 34% 30.13 in 10.0 mi NW 23.0 mph 29.9 mph N/A   Clear
5:15 PM 77.0 °F 46.4 °F 34% 30.13 in 10.0 mi NW 20.7 mph 27.6 mph N/A   Clear
5:35 PM 77.0 °F 46.4 °F 34% 30.13 in 10.0 mi NW 19.6 mph 24.2 mph N/A   Clear
5:55 PM 75.2 °F 46.4 °F 36% 30.13 in 10.0 mi WNW 19.6 mph 25.3 mph N/A   Clear
6:15 PM 75.2 °F 48.2 °F 38% 30.14 in 10.0 mi NW 16.1 mph 20.7 mph N/A   Clear
6:35 PM 75.2 °F 46.4 °F 36% 30.14 in 10.0 mi NW 16.1 mph 24.2 mph N/A   Clear
6:55 PM 73.4 °F 48.2 °F 41% 30.14 in 10.0 mi NW 16.1 mph - N/A   Clear
7:15 PM 73.4 °F 48.2 °F 41% 30.14 in 10.0 mi NW 13.8 mph 19.6 mph N/A   Partly Cloudy
7:35 PM 73.4 °F 48.2 °F 41% 30.14 in 10.0 mi NW 13.8 mph 19.6 mph N/A   Partly Cloudy
7:55 PM 71.6 °F 50.0 °F 46% 30.14 in 10.0 mi NW 8.1 mph - N/A   Clear
8:15 PM 68.0 °F 51.8 °F 56% 30.15 in 10.0 mi WNW 6.9 mph - N/A   Clear
8:35 PM 66.2 °F 51.8 °F 60% 30.15 in 10.0 mi WNW 6.9 mph - N/A   Clear
8:55 PM 62.6 °F 51.8 °F 68% 30.15 in 10.0 mi WNW 8.1 mph - N/A   Clear
9:15 PM 60.8 °F 51.8 °F 72% 30.15 in 10.0 mi WNW 9.2 mph - N/A   Clear
9:35 PM 60.8 °F 50.0 °F 68% 30.16 in 10.0 mi WNW 6.9 mph - N/A   Clear
9:55 PM 60.8 °F 50.0 °F 68% 30.16 in 10.0 mi WNW 8.1 mph - N/A   Clear
10:15 PM 59.0 °F 50.0 °F 72% 30.17 in 10.0 mi West 6.9 mph - N/A   Clear
10:35 PM 59.0 °F 51.8 °F 77% 30.17 in 10.0 mi West 8.1 mph - N/A   Clear
10:55 PM 57.2 °F 51.8 °F 82% 30.17 in 10.0 mi West 6.9 mph - N/A   Clear
11:15 PM 57.2 °F 51.8 °F 82% 30.17 in 10.0 mi West 6.9 mph - N/A   Clear
11:35 PM 57.2 °F 51.8 °F 82% 30.17 in 10.0 mi West 5.8 mph - N/A   Clear
11:55 PM 57.2 °F 50.0 °F 77% 30.17 in 10.0 mi West 6.9 mph - N/A   Clear